sensor_id;sensor_type;location;lat;lon;timestamp;temperature;humidity
7046;DHT22;3564;53.326;10.356;2022-08-21T00:00:53;19.40;91.90
7046;DHT22;3564;53.326;10.356;2022-08-21T00:03:19;19.40;92.00
7046;DHT22;3564;53.326;10.356;2022-08-21T00:05:48;19.40;92.00
7046;DHT22;3564;53.326;10.356;2022-08-21T00:08:16;19.40;91.90
7046;DHT22;3564;53.326;10.356;2022-08-21T00:10:42;19.40;91.90
7046;DHT22;3564;53.326;10.356;2022-08-21T00:13:09;19.40;91.80
7046;DHT22;3564;53.326;10.356;2022-08-21T00:15:36;19.20;92.00
7046;DHT22;3564;53.326;10.356;2022-08-21T00:18:04;19.20;92.40
7046;DHT22;3564;53.326;10.356;2022-08-21T00:20:30;19.10;92.50
7046;DHT22;3564;53.326;10.356;2022-08-21T00:22:55;19.00;92.70
7046;DHT22;3564;53.326;10.356;2022-08-21T00:25:21;19.00;92.80
7046;DHT22;3564;53.326;10.356;2022-08-21T00:27:46;19.00;92.90
7046;DHT22;3564;53.326;10.356;2022-08-21T00:30:14;18.90;93.00
7046;DHT22;3564;53.326;10.356;2022-08-21T00:32:41;18.90;93.10
7046;DHT22;3564;53.326;10.356;2022-08-21T00:35:09;18.80;93.10
7046;DHT22;3564;53.326;10.356;2022-08-21T00:37:37;18.90;93.10
7046;DHT22;3564;53.326;10.356;2022-08-21T00:40:06;18.90;93.00
7046;DHT22;3564;53.326;10.356;2022-08-21T00:42:34;18.90;93.00
7046;DHT22;3564;53.326;10.356;2022-08-21T00:44:59;18.80;93.10
7046;DHT22;3564;53.326;10.356;2022-08-21T00:47:25;18.90;93.10
7046;DHT22;3564;53.326;10.356;2022-08-21T00:49:50;18.80;93.10
7046;DHT22;3564;53.326;10.356;2022-08-21T00:52:22;18.90;93.30
7046;DHT22;3564;53.326;10.356;2022-08-21T00:54:50;18.90;93.20
7046;DHT22;3564;53.326;10.356;2022-08-21T00:57:19;18.90;93.00
7046;DHT22;3564;53.326;10.356;2022-08-21T00:59:48;18.90;92.90
7046;DHT22;3564;53.326;10.356;2022-08-21T01:02:16;18.90;93.00
7046;DHT22;3564;53.326;10.356;2022-08-21T01:04:42;18.90;93.00
7046;DHT22;3564;53.326;10.356;2022-08-21T01:07:09;18.90;93.00
7046;DHT22;3564;53.326;10.356;2022-08-21T01:09:37;18.90;93.00
7046;DHT22;3564;53.326;10.356;2022-08-21T01:12:04;18.90;92.90
7046;DHT22;3564;53.326;10.356;2022-08-21T01:14:30;18.80;93.00
7046;DHT22;3564;53.326;10.356;2022-08-21T01:16:56;18.80;93.20
7046;DHT22;3564;53.326;10.356;2022-08-21T01:19:24;18.80;93.10
7046;DHT22;3564;53.326;10.356;2022-08-21T01:21:52;18.80;93.20
7046;DHT22;3564;53.326;10.356;2022-08-21T01:24:19;18.80;93.20
7046;DHT22;3564;53.326;10.356;2022-08-21T01:26:45;18.80;93.30
7046;DHT22;3564;53.326;10.356;2022-08-21T01:32:12;18.70;93.20
7046;DHT22;3564;53.326;10.356;2022-08-21T01:34:40;18.60;93.20
7046;DHT22;3564;53.326;10.356;2022-08-21T01:37:07;18.60;93.30
7046;DHT22;3564;53.326;10.356;2022-08-21T01:39:34;18.50;93.20
7046;DHT22;3564;53.326;10.356;2022-08-21T01:41:59;18.50;93.40
7046;DHT22;3564;53.326;10.356;2022-08-21T01:44:25;18.50;93.40
7046;DHT22;3564;53.326;10.356;2022-08-21T01:46:52;18.50;93.40
7046;DHT22;3564;53.326;10.356;2022-08-21T01:49:18;18.50;93.40
7046;DHT22;3564;53.326;10.356;2022-08-21T01:51:45;18.50;93.40
7046;DHT22;3564;53.326;10.356;2022-08-21T01:54:11;18.50;93.60
7046;DHT22;3564;53.326;10.356;2022-08-21T01:56:39;18.50;93.50
7046;DHT22;3564;53.326;10.356;2022-08-21T01:59:06;18.50;93.40
7046;DHT22;3564;53.326;10.356;2022-08-21T02:01:31;18.50;93.40
7046;DHT22;3564;53.326;10.356;2022-08-21T02:03:57;18.40;93.40
7046;DHT22;3564;53.326;10.356;2022-08-21T02:06:25;18.40;93.40
7046;DHT22;3564;53.326;10.356;2022-08-21T02:08:52;18.40;93.50
7046;DHT22;3564;53.326;10.356;2022-08-21T02:11:18;18.30;93.80
7046;DHT22;3564;53.326;10.356;2022-08-21T02:13:44;18.20;93.60
7046;DHT22;3564;53.326;10.356;2022-08-21T02:16:10;18.20;93.80
7046;DHT22;3564;53.326;10.356;2022-08-21T02:18:36;18.30;93.80
7046;DHT22;3564;53.326;10.356;2022-08-21T02:21:02;18.30;93.90
7046;DHT22;3564;53.326;10.356;2022-08-21T02:23:29;18.30;93.90
7046;DHT22;3564;53.326;10.356;2022-08-21T02:25:57;18.40;94.00
7046;DHT22;3564;53.326;10.356;2022-08-21T02:28:23;18.40;93.90
7046;DHT22;3564;53.326;10.356;2022-08-21T02:30:49;18.30;93.80
7046;DHT22;3564;53.326;10.356;2022-08-21T02:33:15;18.30;93.80
7046;DHT22;3564;53.326;10.356;2022-08-21T02:35:41;18.30;93.90
7046;DHT22;3564;53.326;10.356;2022-08-21T02:38:09;18.30;93.90
7046;DHT22;3564;53.326;10.356;2022-08-21T02:40:37;18.20;93.80
7046;DHT22;3564;53.326;10.356;2022-08-21T02:43:05;18.20;93.90
7046;DHT22;3564;53.326;10.356;2022-08-21T02:45:32;18.20;93.80
7046;DHT22;3564;53.326;10.356;2022-08-21T02:48:01;18.20;93.70
7046;DHT22;3564;53.326;10.356;2022-08-21T02:50:32;18.20;93.80
7046;DHT22;3564;53.326;10.356;2022-08-21T02:52:59;18.10;93.70
7046;DHT22;3564;53.326;10.356;2022-08-21T02:55:29;18.10;93.70
7046;DHT22;3564;53.326;10.356;2022-08-21T02:57:57;18.00;93.70
7046;DHT22;3564;53.326;10.356;2022-08-21T03:00:24;18.00;93.60
7046;DHT22;3564;53.326;10.356;2022-08-21T03:02:51;18.00;93.80
7046;DHT22;3564;53.326;10.356;2022-08-21T03:05:19;18.00;93.90
7046;DHT22;3564;53.326;10.356;2022-08-21T03:07:46;17.90;93.90
7046;DHT22;3564;53.326;10.356;2022-08-21T03:10:13;17.80;94.10
7046;DHT22;3564;53.326;10.356;2022-08-21T03:12:39;17.80;94.20
7046;DHT22;3564;53.326;10.356;2022-08-21T03:15:07;17.80;94.20
7046;DHT22;3564;53.326;10.356;2022-08-21T03:17:33;17.80;94.30
7046;DHT22;3564;53.326;10.356;2022-08-21T03:20:04;17.80;94.50
7046;DHT22;3564;53.326;10.356;2022-08-21T03:22:30;17.80;94.40
7046;DHT22;3564;53.326;10.356;2022-08-21T03:24:58;17.90;94.40
7046;DHT22;3564;53.326;10.356;2022-08-21T03:27:25;17.90;94.30
7046;DHT22;3564;53.326;10.356;2022-08-21T03:29:52;17.90;94.20
7046;DHT22;3564;53.326;10.356;2022-08-21T03:32:18;18.00;94.10
7046;DHT22;3564;53.326;10.356;2022-08-21T03:34:45;18.00;94.10
7046;DHT22;3564;53.326;10.356;2022-08-21T03:37:11;18.00;94.10
7046;DHT22;3564;53.326;10.356;2022-08-21T03:39:37;17.90;93.90
7046;DHT22;3564;53.326;10.356;2022-08-21T03:42:02;17.90;94.00
7046;DHT22;3564;53.326;10.356;2022-08-21T03:44:28;17.90;94.20
7046;DHT22;3564;53.326;10.356;2022-08-21T03:46:55;17.90;94.20
7046;DHT22;3564;53.326;10.356;2022-08-21T03:49:21;17.90;94.20
7046;DHT22;3564;53.326;10.356;2022-08-21T03:51:46;17.90;94.20
7046;DHT22;3564;53.326;10.356;2022-08-21T03:54:12;17.90;94.20
7046;DHT22;3564;53.326;10.356;2022-08-21T03:56:37;17.90;94.00
7046;DHT22;3564;53.326;10.356;2022-08-21T03:59:05;17.80;94.10
7046;DHT22;3564;53.326;10.356;2022-08-21T04:01:31;17.80;94.10
7046;DHT22;3564;53.326;10.356;2022-08-21T04:04:00;17.80;94.20
7046;DHT22;3564;53.326;10.356;2022-08-21T04:06:26;17.80;94.20
7046;DHT22;3564;53.326;10.356;2022-08-21T04:08:52;17.80;94.20
7046;DHT22;3564;53.326;10.356;2022-08-21T04:11:21;17.80;94.20
7046;DHT22;3564;53.326;10.356;2022-08-21T04:13:47;17.80;94.50
7046;DHT22;3564;53.326;10.356;2022-08-21T04:16:13;17.70;94.10
7046;DHT22;3564;53.326;10.356;2022-08-21T04:18:39;17.70;94.10
7046;DHT22;3564;53.326;10.356;2022-08-21T04:21:05;17.70;94.30
7046;DHT22;3564;53.326;10.356;2022-08-21T04:23:32;17.70;94.30
7046;DHT22;3564;53.326;10.356;2022-08-21T04:25:57;17.70;94.30
7046;DHT22;3564;53.326;10.356;2022-08-21T04:28:25;17.60;94.30
7046;DHT22;3564;53.326;10.356;2022-08-21T04:30:51;17.70;94.50
7046;DHT22;3564;53.326;10.356;2022-08-21T04:33:17;17.70;94.40
7046;DHT22;3564;53.326;10.356;2022-08-21T04:35:43;17.70;94.30
7046;DHT22;3564;53.326;10.356;2022-08-21T04:38:09;17.70;94.40
7046;DHT22;3564;53.326;10.356;2022-08-21T04:40:35;17.70;94.40
7046;DHT22;3564;53.326;10.356;2022-08-21T04:43:07;17.60;94.20
7046;DHT22;3564;53.326;10.356;2022-08-21T04:45:50;17.60;94.40
7046;DHT22;3564;53.326;10.356;2022-08-21T04:48:18;17.50;94.40
7046;DHT22;3564;53.326;10.356;2022-08-21T04:51:00;17.50;94.50
7046;DHT22;3564;53.326;10.356;2022-08-21T04:55:58;17.50;94.60
7046;DHT22;3564;53.326;10.356;2022-08-21T04:58:26;17.60;94.70
7046;DHT22;3564;53.326;10.356;2022-08-21T05:00:55;17.60;94.70
7046;DHT22;3564;53.326;10.356;2022-08-21T05:03:21;17.60;94.70
7046;DHT22;3564;53.326;10.356;2022-08-21T05:05:48;17.50;94.70
7046;DHT22;3564;53.326;10.356;2022-08-21T05:08:17;17.50;94.70
7046;DHT22;3564;53.326;10.356;2022-08-21T05:10:43;17.40;94.70
7046;DHT22;3564;53.326;10.356;2022-08-21T05:13:10;17.40;94.90
7046;DHT22;3564;53.326;10.356;2022-08-21T05:15:40;17.50;95.00
7046;DHT22;3564;53.326;10.356;2022-08-21T05:18:07;17.40;95.00
7046;DHT22;3564;53.326;10.356;2022-08-21T05:20:34;17.40;95.00
7046;DHT22;3564;53.326;10.356;2022-08-21T05:23:00;17.40;95.10
7046;DHT22;3564;53.326;10.356;2022-08-21T05:25:27;17.40;95.20
7046;DHT22;3564;53.326;10.356;2022-08-21T05:27:52;17.40;95.50
7046;DHT22;3564;53.326;10.356;2022-08-21T05:30:19;17.40;95.70
7046;DHT22;3564;53.326;10.356;2022-08-21T05:32:46;17.50;95.90
7046;DHT22;3564;53.326;10.356;2022-08-21T05:35:13;17.50;96.10
7046;DHT22;3564;53.326;10.356;2022-08-21T05:37:39;17.50;96.30
7046;DHT22;3564;53.326;10.356;2022-08-21T05:40:05;17.60;96.50
7046;DHT22;3564;53.326;10.356;2022-08-21T05:42:32;17.60;96.60
7046;DHT22;3564;53.326;10.356;2022-08-21T05:44:57;17.70;96.90
7046;DHT22;3564;53.326;10.356;2022-08-21T05:47:23;17.70;97.00
7046;DHT22;3564;53.326;10.356;2022-08-21T05:49:48;17.80;97.10
7046;DHT22;3564;53.326;10.356;2022-08-21T05:52:19;17.90;97.30
7046;DHT22;3564;53.326;10.356;2022-08-21T05:54:45;17.90;97.40
7046;DHT22;3564;53.326;10.356;2022-08-21T05:57:11;18.00;97.50
7046;DHT22;3564;53.326;10.356;2022-08-21T05:59:36;18.10;97.50
7046;DHT22;3564;53.326;10.356;2022-08-21T06:02:03;18.10;97.50
7046;DHT22;3564;53.326;10.356;2022-08-21T06:04:29;18.20;97.70
7046;DHT22;3564;53.326;10.356;2022-08-21T06:06:54;18.30;97.70
7046;DHT22;3564;53.326;10.356;2022-08-21T06:09:20;18.40;97.60
7046;DHT22;3564;53.326;10.356;2022-08-21T06:11:46;18.50;97.60
7046;DHT22;3564;53.326;10.356;2022-08-21T06:14:15;18.50;97.50
7046;DHT22;3564;53.326;10.356;2022-08-21T06:16:41;18.60;97.40
7046;DHT22;3564;53.326;10.356;2022-08-21T06:19:07;18.60;97.40
7046;DHT22;3564;53.326;10.356;2022-08-21T06:21:32;18.70;97.50
7046;DHT22;3564;53.326;10.356;2022-08-21T06:23:58;18.70;97.40
7046;DHT22;3564;53.326;10.356;2022-08-21T06:26:24;18.80;97.40
7046;DHT22;3564;53.326;10.356;2022-08-21T06:28:49;18.80;97.40
7046;DHT22;3564;53.326;10.356;2022-08-21T06:31:18;18.90;97.40
7046;DHT22;3564;53.326;10.356;2022-08-21T06:33:44;18.90;97.40
7046;DHT22;3564;53.326;10.356;2022-08-21T06:36:10;19.00;97.50
7046;DHT22;3564;53.326;10.356;2022-08-21T06:38:37;19.00;97.60
7046;DHT22;3564;53.326;10.356;2022-08-21T06:41:03;19.10;97.70
7046;DHT22;3564;53.326;10.356;2022-08-21T06:43:29;19.10;97.70
7046;DHT22;3564;53.326;10.356;2022-08-21T06:45:54;19.10;97.80
7046;DHT22;3564;53.326;10.356;2022-08-21T06:48:20;19.10;97.80
7046;DHT22;3564;53.326;10.356;2022-08-21T06:50:46;19.20;98.00
7046;DHT22;3564;53.326;10.356;2022-08-21T06:53:15;19.30;98.20
7046;DHT22;3564;53.326;10.356;2022-08-21T06:55:41;19.40;98.30
7046;DHT22;3564;53.326;10.356;2022-08-21T06:58:09;19.40;98.40
7046;DHT22;3564;53.326;10.356;2022-08-21T07:00:37;19.50;98.40
7046;DHT22;3564;53.326;10.356;2022-08-21T07:03:04;19.60;98.30
7046;DHT22;3564;53.326;10.356;2022-08-21T07:05:30;19.60;98.30
7046;DHT22;3564;53.326;10.356;2022-08-21T07:07:56;19.70;98.20
7046;DHT22;3564;53.326;10.356;2022-08-21T07:10:23;19.70;97.50
7046;DHT22;3564;53.326;10.356;2022-08-21T07:12:51;19.60;97.20
7046;DHT22;3564;53.326;10.356;2022-08-21T07:15:18;19.60;97.40
7046;DHT22;3564;53.326;10.356;2022-08-21T07:17:44;19.70;97.40
7046;DHT22;3564;53.326;10.356;2022-08-21T07:20:09;19.80;97.60
7046;DHT22;3564;53.326;10.356;2022-08-21T07:22:36;19.90;97.70
7046;DHT22;3564;53.326;10.356;2022-08-21T07:25:05;19.90;97.70
7046;DHT22;3564;53.326;10.356;2022-08-21T07:27:31;20.00;97.40
7046;DHT22;3564;53.326;10.356;2022-08-21T07:29:57;20.00;97.30
7046;DHT22;3564;53.326;10.356;2022-08-21T07:32:23;20.10;97.20
7046;DHT22;3564;53.326;10.356;2022-08-21T07:34:49;20.10;97.20
7046;DHT22;3564;53.326;10.356;2022-08-21T07:37:18;20.20;97.20
7046;DHT22;3564;53.326;10.356;2022-08-21T07:39:43;20.20;97.00
7046;DHT22;3564;53.326;10.356;2022-08-21T07:42:09;20.30;96.70
7046;DHT22;3564;53.326;10.356;2022-08-21T07:44:35;20.30;96.70
7046;DHT22;3564;53.326;10.356;2022-08-21T07:47:01;20.30;96.60
7046;DHT22;3564;53.326;10.356;2022-08-21T07:49:27;20.40;96.40
7046;DHT22;3564;53.326;10.356;2022-08-21T07:51:53;20.40;96.90
7046;DHT22;3564;53.326;10.356;2022-08-21T07:54:20;20.60;96.70
7046;DHT22;3564;53.326;10.356;2022-08-21T07:56:45;20.60;96.70
7046;DHT22;3564;53.326;10.356;2022-08-21T07:59:11;20.70;96.60
7046;DHT22;3564;53.326;10.356;2022-08-21T08:01:37;20.80;96.70
7046;DHT22;3564;53.326;10.356;2022-08-21T08:04:03;20.90;96.60
7046;DHT22;3564;53.326;10.356;2022-08-21T08:06:29;21.00;96.70
7046;DHT22;3564;53.326;10.356;2022-08-21T08:08:56;21.10;96.60
7046;DHT22;3564;53.326;10.356;2022-08-21T08:11:21;21.20;96.40
7046;DHT22;3564;53.326;10.356;2022-08-21T08:13:50;21.20;95.30
7046;DHT22;3564;53.326;10.356;2022-08-21T08:16:17;21.30;94.50
7046;DHT22;3564;53.326;10.356;2022-08-21T08:18:43;21.30;93.60
7046;DHT22;3564;53.326;10.356;2022-08-21T08:21:13;21.30;93.10
7046;DHT22;3564;53.326;10.356;2022-08-21T08:23:39;21.40;92.70
7046;DHT22;3564;53.326;10.356;2022-08-21T08:26:05;21.50;92.40
7046;DHT22;3564;53.326;10.356;2022-08-21T08:28:32;21.60;92.20
7046;DHT22;3564;53.326;10.356;2022-08-21T08:30:59;21.80;92.30
7046;DHT22;3564;53.326;10.356;2022-08-21T08:33:25;21.80;91.60
7046;DHT22;3564;53.326;10.356;2022-08-21T08:35:51;21.90;91.40
7046;DHT22;3564;53.326;10.356;2022-08-21T08:38:18;22.10;91.10
7046;DHT22;3564;53.326;10.356;2022-08-21T08:43:27;22.20;90.60
7046;DHT22;3564;53.326;10.356;2022-08-21T08:45:58;22.10;90.20
7046;DHT22;3564;53.326;10.356;2022-08-21T08:48:46;22.20;90.30
7046;DHT22;3564;53.326;10.356;2022-08-21T08:51:33;22.40;90.60
7046;DHT22;3564;53.326;10.356;2022-08-21T08:54:05;22.60;90.60
7046;DHT22;3564;53.326;10.356;2022-08-21T08:56:34;22.70;90.30
7046;DHT22;3564;53.326;10.356;2022-08-21T08:59:07;22.70;90.00
7046;DHT22;3564;53.326;10.356;2022-08-21T09:01:34;22.90;90.20
7046;DHT22;3564;53.326;10.356;2022-08-21T09:04:00;23.00;90.20
7046;DHT22;3564;53.326;10.356;2022-08-21T09:07:01;23.20;89.80
7046;DHT22;3564;53.326;10.356;2022-08-21T09:09:42;23.20;89.20
7046;DHT22;3564;53.326;10.356;2022-08-21T09:27:36;23.60;87.50
7046;DHT22;3564;53.326;10.356;2022-08-21T09:30:07;23.70;87.70
7046;DHT22;3564;53.326;10.356;2022-08-21T09:32:34;23.80;88.20
7046;DHT22;3564;53.326;10.356;2022-08-21T09:35:04;24.00;88.50
7046;DHT22;3564;53.326;10.356;2022-08-21T09:37:32;24.10;87.50
7046;DHT22;3564;53.326;10.356;2022-08-21T09:40:00;24.10;87.40
7046;DHT22;3564;53.326;10.356;2022-08-21T09:42:30;24.20;87.50
7046;DHT22;3564;53.326;10.356;2022-08-21T09:45:09;24.20;86.70
7046;DHT22;3564;53.326;10.356;2022-08-21T09:47:37;24.20;87.10
7046;DHT22;3564;53.326;10.356;2022-08-21T09:50:12;24.20;87.40
7046;DHT22;3564;53.326;10.356;2022-08-21T09:52:44;24.30;87.70
7046;DHT22;3564;53.326;10.356;2022-08-21T09:55:16;24.40;87.30
7046;DHT22;3564;53.326;10.356;2022-08-21T09:58:03;24.50;87.40
7046;DHT22;3564;53.326;10.356;2022-08-21T10:00:32;24.50;88.00
7046;DHT22;3564;53.326;10.356;2022-08-21T10:03:08;24.60;87.60
7046;DHT22;3564;53.326;10.356;2022-08-21T10:05:35;24.70;87.50
7046;DHT22;3564;53.326;10.356;2022-08-21T10:08:02;24.80;88.30
7046;DHT22;3564;53.326;10.356;2022-08-21T10:10:31;25.00;87.90
7046;DHT22;3564;53.326;10.356;2022-08-21T10:15:45;25.10;87.00
7046;DHT22;3564;53.326;10.356;2022-08-21T10:21:41;25.30;86.40
7046;DHT22;3564;53.326;10.356;2022-08-21T10:24:32;25.30;85.50
7046;DHT22;3564;53.326;10.356;2022-08-21T10:29:56;25.30;85.70
7046;DHT22;3564;53.326;10.356;2022-08-21T10:35:23;25.30;85.40
7046;DHT22;3564;53.326;10.356;2022-08-21T10:40:58;25.60;86.00
7046;DHT22;3564;53.326;10.356;2022-08-21T10:43:43;25.70;84.40
7046;DHT22;3564;53.326;10.356;2022-08-21T10:49:21;26.00;84.40
7046;DHT22;3564;53.326;10.356;2022-08-21T10:57:58;26.40;84.20
7046;DHT22;3564;53.326;10.356;2022-08-21T11:00:49;26.40;81.40
7046;DHT22;3564;53.326;10.356;2022-08-21T11:06:06;26.10;81.80
7046;DHT22;3564;53.326;10.356;2022-08-21T11:08:44;26.20;81.30
7046;DHT22;3564;53.326;10.356;2022-08-21T11:11:27;26.40;82.20
7046;DHT22;3564;53.326;10.356;2022-08-21T11:14:09;26.40;81.20
7046;DHT22;3564;53.326;10.356;2022-08-21T11:16:37;26.50;81.10
7046;DHT22;3564;53.326;10.356;2022-08-21T11:22:18;26.50;80.70
7046;DHT22;3564;53.326;10.356;2022-08-21T11:27:48;26.30;81.50
7046;DHT22;3564;53.326;10.356;2022-08-21T11:30:15;26.40;81.70
7046;DHT22;3564;53.326;10.356;2022-08-21T11:38:28;26.50;81.60
7046;DHT22;3564;53.326;10.356;2022-08-21T11:44:23;26.40;80.90
7046;DHT22;3564;53.326;10.356;2022-08-21T11:52:08;26.50;78.70
7046;DHT22;3564;53.326;10.356;2022-08-21T11:57:20;26.40;78.30
7046;DHT22;3564;53.326;10.356;2022-08-21T12:00:12;26.40;77.30
7046;DHT22;3564;53.326;10.356;2022-08-21T12:02:47;26.50;78.20
7046;DHT22;3564;53.326;10.356;2022-08-21T12:05:30;26.50;77.60
7046;DHT22;3564;53.326;10.356;2022-08-21T12:08:56;26.40;77.00
7046;DHT22;3564;53.326;10.356;2022-08-21T12:16:41;26.40;76.50
7046;DHT22;3564;53.326;10.356;2022-08-21T12:19:27;26.40;76.50
7046;DHT22;3564;53.326;10.356;2022-08-21T12:22:13;26.30;75.80
7046;DHT22;3564;53.326;10.356;2022-08-21T12:24:49;26.30;77.00
7046;DHT22;3564;53.326;10.356;2022-08-21T12:27:29;26.20;76.30
7046;DHT22;3564;53.326;10.356;2022-08-21T12:29:59;26.20;76.70
7046;DHT22;3564;53.326;10.356;2022-08-21T12:32:42;26.30;76.30
7046;DHT22;3564;53.326;10.356;2022-08-21T12:35:25;26.20;76.10
7046;DHT22;3564;53.326;10.356;2022-08-21T12:38:01;26.20;76.50
7046;DHT22;3564;53.326;10.356;2022-08-21T12:40:53;26.30;76.30
7046;DHT22;3564;53.326;10.356;2022-08-21T12:43:33;26.30;76.40
7046;DHT22;3564;53.326;10.356;2022-08-21T12:45:58;26.40;76.00
7046;DHT22;3564;53.326;10.356;2022-08-21T12:48:41;26.40;75.40
7046;DHT22;3564;53.326;10.356;2022-08-21T12:51:33;26.30;76.10
7046;DHT22;3564;53.326;10.356;2022-08-21T12:54:00;26.30;74.80
7046;DHT22;3564;53.326;10.356;2022-08-21T12:56:32;26.20;76.10
7046;DHT22;3564;53.326;10.356;2022-08-21T12:59:04;26.40;76.40
7046;DHT22;3564;53.326;10.356;2022-08-21T13:01:38;26.30;76.00
7046;DHT22;3564;53.326;10.356;2022-08-21T13:04:10;26.30;75.40
7046;DHT22;3564;53.326;10.356;2022-08-21T13:06:48;26.20;75.50
7046;DHT22;3564;53.326;10.356;2022-08-21T13:09:16;26.30;75.90
7046;DHT22;3564;53.326;10.356;2022-08-21T13:12:01;26.40;76.00
7046;DHT22;3564;53.326;10.356;2022-08-21T13:14:47;26.30;74.20
7046;DHT22;3564;53.326;10.356;2022-08-21T13:17:16;26.30;74.80
7046;DHT22;3564;53.326;10.356;2022-08-21T13:19:42;26.30;75.50
7046;DHT22;3564;53.326;10.356;2022-08-21T13:22:17;26.30;75.20
7046;DHT22;3564;53.326;10.356;2022-08-21T13:24:47;26.40;74.50
7046;DHT22;3564;53.326;10.356;2022-08-21T13:27:32;26.30;74.90
7046;DHT22;3564;53.326;10.356;2022-08-21T13:30:20;26.40;74.80
7046;DHT22;3564;53.326;10.356;2022-08-21T13:33:10;26.40;74.50
7046;DHT22;3564;53.326;10.356;2022-08-21T13:35:48;26.40;74.20
7046;DHT22;3564;53.326;10.356;2022-08-21T13:38:14;26.30;74.10
7046;DHT22;3564;53.326;10.356;2022-08-21T13:40:49;26.30;74.30
7046;DHT22;3564;53.326;10.356;2022-08-21T13:43:19;26.30;75.60
7046;DHT22;3564;53.326;10.356;2022-08-21T13:45:51;26.10;74.30
7046;DHT22;3564;53.326;10.356;2022-08-21T13:48:17;26.30;74.80
7046;DHT22;3564;53.326;10.356;2022-08-21T13:51:03;26.40;75.00
7046;DHT22;3564;53.326;10.356;2022-08-21T13:53:45;26.50;74.40
7046;DHT22;3564;53.326;10.356;2022-08-21T13:59:12;26.70;73.70
7046;DHT22;3564;53.326;10.356;2022-08-21T14:01:52;26.80;75.00
7046;DHT22;3564;53.326;10.356;2022-08-21T14:04:33;26.90;73.50
7046;DHT22;3564;53.326;10.356;2022-08-21T14:06:59;27.00;72.40
7046;DHT22;3564;53.326;10.356;2022-08-21T14:09:55;27.20;73.10
7046;DHT22;3564;53.326;10.356;2022-08-21T14:12:31;27.30;72.70
7046;DHT22;3564;53.326;10.356;2022-08-21T14:15:03;27.40;71.80
7046;DHT22;3564;53.326;10.356;2022-08-21T14:17:36;27.60;71.30
7046;DHT22;3564;53.326;10.356;2022-08-21T14:20:31;27.60;69.70
7046;DHT22;3564;53.326;10.356;2022-08-21T14:22:58;27.60;70.70
7046;DHT22;3564;53.326;10.356;2022-08-21T14:27:52;27.80;70.50
7046;DHT22;3564;53.326;10.356;2022-08-21T14:30:25;28.00;71.70
7046;DHT22;3564;53.326;10.356;2022-08-21T14:32:52;28.20;71.80
7046;DHT22;3564;53.326;10.356;2022-08-21T14:35:18;28.40;71.70
7046;DHT22;3564;53.326;10.356;2022-08-21T14:37:46;28.50;70.50
7046;DHT22;3564;53.326;10.356;2022-08-21T14:40:52;28.60;70.60
7046;DHT22;3564;53.326;10.356;2022-08-21T14:43:19;28.70;69.50
7046;DHT22;3564;53.326;10.356;2022-08-21T14:45:45;28.90;69.80
7046;DHT22;3564;53.326;10.356;2022-08-21T14:48:11;28.90;69.70
7046;DHT22;3564;53.326;10.356;2022-08-21T14:50:37;28.70;69.10
7046;DHT22;3564;53.326;10.356;2022-08-21T14:53:03;28.70;70.10
7046;DHT22;3564;53.326;10.356;2022-08-21T14:55:29;28.80;70.60
7046;DHT22;3564;53.326;10.356;2022-08-21T14:58:31;28.80;68.40
7046;DHT22;3564;53.326;10.356;2022-08-21T15:01:37;28.80;67.90
7046;DHT22;3564;53.326;10.356;2022-08-21T15:04:22;28.80;67.00
7046;DHT22;3564;53.326;10.356;2022-08-21T15:06:48;28.90;67.40
7046;DHT22;3564;53.326;10.356;2022-08-21T15:09:13;28.90;67.00
7046;DHT22;3564;53.326;10.356;2022-08-21T15:11:39;28.90;67.20
7046;DHT22;3564;53.326;10.356;2022-08-21T15:14:07;29.10;67.60
7046;DHT22;3564;53.326;10.356;2022-08-21T15:16:35;29.10;66.60
7046;DHT22;3564;53.326;10.356;2022-08-21T15:19:00;29.20;68.10
7046;DHT22;3564;53.326;10.356;2022-08-21T15:21:26;29.40;68.10
7046;DHT22;3564;53.326;10.356;2022-08-21T15:23:51;29.70;66.90
7046;DHT22;3564;53.326;10.356;2022-08-21T15:26:18;30.00;67.40
7046;DHT22;3564;53.326;10.356;2022-08-21T15:28:45;30.30;66.40
7046;DHT22;3564;53.326;10.356;2022-08-21T15:31:10;31.10;67.00
7046;DHT22;3564;53.326;10.356;2022-08-21T15:33:36;32.40;65.20
7046;DHT22;3564;53.326;10.356;2022-08-21T15:36:02;33.60;63.50
7046;DHT22;3564;53.326;10.356;2022-08-21T15:38:28;35.00;61.20
7046;DHT22;3564;53.326;10.356;2022-08-21T15:40:53;36.20;60.40
7046;DHT22;3564;53.326;10.356;2022-08-21T15:43:28;36.90;57.30
7046;DHT22;3564;53.326;10.356;2022-08-21T15:45:54;37.40;55.90
7046;DHT22;3564;53.326;10.356;2022-08-21T15:48:20;37.60;54.60
7046;DHT22;3564;53.326;10.356;2022-08-21T15:50:46;38.40;54.70
7046;DHT22;3564;53.326;10.356;2022-08-21T15:53:12;39.20;54.00
7046;DHT22;3564;53.326;10.356;2022-08-21T15:55:38;39.70;52.50
7046;DHT22;3564;53.326;10.356;2022-08-21T15:58:05;40.10;52.00
7046;DHT22;3564;53.326;10.356;2022-08-21T16:00:34;40.60;51.20
7046;DHT22;3564;53.326;10.356;2022-08-21T16:03:03;41.10;50.60
7046;DHT22;3564;53.326;10.356;2022-08-21T16:05:29;41.50;49.70
7046;DHT22;3564;53.326;10.356;2022-08-21T16:07:57;41.60;49.00
7046;DHT22;3564;53.326;10.356;2022-08-21T16:10:23;42.00;49.00
7046;DHT22;3564;53.326;10.356;2022-08-21T16:12:57;42.20;47.80
7046;DHT22;3564;53.326;10.356;2022-08-21T16:15:24;42.00;47.10
7046;DHT22;3564;53.326;10.356;2022-08-21T16:17:51;41.90;46.90
7046;DHT22;3564;53.326;10.356;2022-08-21T16:20:28;41.60;47.10
7046;DHT22;3564;53.326;10.356;2022-08-21T16:22:56;41.10;47.70
7046;DHT22;3564;53.326;10.356;2022-08-21T16:25:22;40.20;48.00
7046;DHT22;3564;53.326;10.356;2022-08-21T16:27:52;39.50;48.90
7046;DHT22;3564;53.326;10.356;2022-08-21T16:30:20;38.90;49.20
7046;DHT22;3564;53.326;10.356;2022-08-21T16:32:47;38.30;50.20
7046;DHT22;3564;53.326;10.356;2022-08-21T16:35:15;38.00;50.60
7046;DHT22;3564;53.326;10.356;2022-08-21T16:37:42;38.10;50.90
7046;DHT22;3564;53.326;10.356;2022-08-21T16:40:10;38.20;50.70
7046;DHT22;3564;53.326;10.356;2022-08-21T16:42:38;38.00;49.70
7046;DHT22;3564;53.326;10.356;2022-08-21T16:45:07;37.50;50.70
7046;DHT22;3564;53.326;10.356;2022-08-21T16:47:34;37.00;51.30
7046;DHT22;3564;53.326;10.356;2022-08-21T16:49:59;36.30;51.60
7046;DHT22;3564;53.326;10.356;2022-08-21T16:52:25;35.70;52.40
7046;DHT22;3564;53.326;10.356;2022-08-21T16:54:51;35.00;53.60
7046;DHT22;3564;53.326;10.356;2022-08-21T16:57:16;34.50;54.50
7046;DHT22;3564;53.326;10.356;2022-08-21T16:59:42;33.90;55.10
7046;DHT22;3564;53.326;10.356;2022-08-21T17:02:22;33.30;55.60
7046;DHT22;3564;53.326;10.356;2022-08-21T17:04:49;32.80;56.50
7046;DHT22;3564;53.326;10.356;2022-08-21T17:07:15;32.40;57.60
7046;DHT22;3564;53.326;10.356;2022-08-21T17:09:40;32.00;57.90
7046;DHT22;3564;53.326;10.356;2022-08-21T17:12:06;31.70;58.40
7046;DHT22;3564;53.326;10.356;2022-08-21T17:14:32;31.40;58.80
7046;DHT22;3564;53.326;10.356;2022-08-21T17:17:00;31.10;59.40
7046;DHT22;3564;53.326;10.356;2022-08-21T17:19:27;30.90;60.10
7046;DHT22;3564;53.326;10.356;2022-08-21T17:21:53;30.60;61.00
7046;DHT22;3564;53.326;10.356;2022-08-21T17:24:18;30.50;61.20